Forside
METAR-TAF:

METAR-TAF

Lufthavne :

Ponta Delgada, Azorerne, Portugal

Breddekreds: 37-44N, længdekreds: 025-42W, højde: 71 m

Aktuelle vejr

Denne rapport blev lavet for 27 minutter siden, kl. 12:00 UTC
Vind 15 kt fra nordøst med vindstød på up til 25 kt
Temperatur 14°C
Fugtighed 77%
Tryk 1034 hPa
Sigt 10 km eller mere
Nogle få skyer i en højde af 2000 ft
Brudte skyer i en højde af 2500 ft

METAR: LPPD 221200Z 04015G25KT 9999 FEW020 BKN025 14/10 Q1034

Tid: 11:27 (12:27 UTC)

Vejrudsigter

Denne rapport blev lavet for 57 minutter siden, kl. 11:30 UTC
Foreløbig gælder fra 22 på 12 UTC til 23 på 12 UTC
Vind 13 kt fra østnordøst
Sigt 10 km eller mere
Spredte skyer i en højde af 2000 ft
Midlertidig
fra 22 på 12 UTC til 23 på 12 UTC
Nogle få skyer i en højde af 1500 ft
Brudte skyer i en højde af 3000 ft
Sandsynlighed 30% :
Midlertidig
fra 22 på 12 UTC til 22 på 20 UTC
Vind 15 kt fra østnordøst med vindstød på up til 25 kt

TAF: LPPD 221130Z 2212/2312 06013KT 9999 SCT020 TEMPO 2212/2312 FEW015 BKN030 PROB30 TEMPO 2212/2220 07015G25KT

Vejrobservationer og prognoser fra mere end 4000 lufthavne (METAR og TAF).

De gule og røde prikker repræsenterer de meteorologiske stationer.

Flyt musen over at se navnet på stationen.

Så klik over at se vejr observationer og prognoser.

At skifte det kort: Klik på de grønne knapper med et sort kors for at zoome ind; på den grønne knap med en bindestreg for at zoome ud; eller på de grønne pile for tilstødende kort.


METAR-TAF: